Time;durP1;ratioP1;P1;durP2;ratioP2;P2;SDS_P1;SDS_P2;PMS_P1;PMS_P2;Temp;Humidity;BMP_temperature;BMP_pressure;BME280_temperature;BME280_humidity;BME280_pressure;Samples;Min_cycle;Max_cycle;Signal;HPM_P1;HPM_P2
2022/01/10 08:31:33;;;;;;;;;;;3.30;98.40;;;;;;5119126;27;1411522;-51
2022/01/10 08:34:01;;;;;;;29.98;11.57;;;3.30;98.50;;;;;;5151711;27;19920;-50
2022/01/10 08:36:28;;;;;;;26.40;9.65;;;3.30;98.40;;;;;;5144492;27;20490;-51
2022/01/10 08:38:55;;;;;;;27.42;10.98;;;3.40;98.30;;;;;;5130977;27;20040;-53
2022/01/10 08:41:22;;;;;;;25.55;9.43;;;3.50;98.10;;;;;;5130819;27;20069;-48
2022/01/10 08:43:48;;;;;;;27.60;10.60;;;3.60;98.00;;;;;;5130002;28;20039;-52
2022/01/10 08:46:15;;;;;;;33.15;12.10;;;3.80;97.80;;;;;;5131235;27;20088;-50
2022/01/10 08:48:48;;;;;;;26.00;10.02;;;3.90;97.60;;;;;;5130890;27;20414;-50
2022/01/10 08:51:15;;;;;;;32.72;10.27;;;3.90;97.40;;;;;;5130540;27;20547;-55
2022/01/10 08:53:42;;;;;;;29.40;9.48;;;4.00;97.30;;;;;;5130698;27;20159;-49
2022/01/10 08:56:08;;;;;;;28.17;10.32;;;4.10;97.20;;;;;;5130749;27;20498;-51
2022/01/10 08:58:35;;;;;;;24.30;9.25;;;4.10;97.00;;;;;;5130437;27;20039;-50
2022/01/10 09:01:02;;;;;;;21.33;9.30;;;4.20;96.80;;;;;;5129230;28;20131;-53
2022/01/10 09:03:29;;;;;;;19.33;8.38;;;4.20;96.80;;;;;;5130525;27;20055;-53
2022/01/10 09:05:56;;;;;;;26.92;10.15;;;4.30;96.80;;;;;;5130245;27;20039;-51
2022/01/10 09:08:23;;;;;;;16.80;7.95;;;4.30;96.70;;;;;;5130015;27;20054;-49
2022/01/10 09:10:50;;;;;;;17.58;8.43;;;4.40;96.60;;;;;;5130528;27;20366;-49
2022/01/10 09:13:16;;;;;;;19.30;7.32;;;4.40;96.60;;;;;;5130121;27;20042;-48
2022/01/10 09:15:43;;;;;;;21.88;7.65;;;4.50;96.50;;;;;;5130313;27;20126;-46
2022/01/10 09:18:10;;;;;;;25.50;8.05;;;4.50;96.50;;;;;;5128483;27;20035;-50
2022/01/10 09:20:37;;;;;;;23.55;7.18;;;4.60;96.40;;;;;;5130046;27;20043;-53
2022/01/10 09:23:04;;;;;;;17.00;6.28;;;4.60;96.30;;;;;;5130169;27;20505;-50
2022/01/10 09:25:31;;;;;;;16.92;6.32;;;4.70;96.50;;;;;;5130002;27;20535;-49
2022/01/10 09:27:58;;;;;;;14.95;6.22;;;4.80;96.20;;;;;;5129495;27;20047;-48
2022/01/10 09:30:25;;;;;;;23.90;8.05;;;4.80;95.90;;;;;;5130032;27;20078;-47
2022/01/10 09:32:53;;;;;;;21.17;7.82;;;4.90;96.00;;;;;;5129467;27;20035;-51
2022/01/10 09:35:20;;;;;;;24.20;7.10;;;4.90;96.00;;;;;;5129528;27;20051;-50
2022/01/10 09:37:47;;;;;;;20.80;7.95;;;5.00;96.00;;;;;;5127870;28;20506;-52
2022/01/10 09:40:14;;;;;;;19.75;7.03;;;5.00;95.80;;;;;;5128657;28;20486;-47
2022/01/10 09:42:41;;;;;;;18.95;6.28;;;5.00;95.80;;;;;;5117658;27;20036;-49
2022/01/10 09:45:07;;;;;;;19.60;5.75;;;5.00;95.80;;;;;;5115720;28;20044;-50
2022/01/10 09:47:34;;;;;;;20.35;5.93;;;5.10;95.80;;;;;;5115668;28;20032;-49
2022/01/10 09:50:04;;;;;;;17.30;4.93;;;5.10;95.70;;;;;;5115864;28;20493;-53
2022/01/10 09:52:30;;;;;;;15.23;4.70;;;5.20;95.60;;;;;;5114261;28;20050;-50
2022/01/10 09:54:57;;;;;;;17.58;6.00;;;5.30;95.60;;;;;;5115717;28;20048;-52
2022/01/10 09:57:24;;;;;;;13.80;5.30;;;5.30;95.70;;;;;;5115629;28;20502;-49
2022/01/10 09:59:51;;;;;;;16.77;5.45;;;5.40;95.70;;;;;;5114946;27;20065;-52
2022/01/10 10:02:18;;;;;;;18.35;6.60;;;5.40;95.60;;;;;;5115432;28;20059;-50
2022/01/10 10:04:48;;;;;;;23.90;7.22;;;5.50;95.60;;;;;;5115781;28;20039;-50
2022/01/10 10:07:15;;;;;;;26.40;6.18;;;5.50;95.50;;;;;;5115616;28;20441;-47
2022/01/10 10:09:43;;;;;;;20.63;6.15;;;5.50;95.40;;;;;;5097362;28;20490;-48
2022/01/10 10:12:11;;;;;;;19.00;6.35;;;5.60;95.40;;;;;;5115456;28;20444;-48
2022/01/10 10:14:40;;;;;;;18.08;4.78;;;5.70;95.40;;;;;;5115378;28;20360;-50
2022/01/10 10:17:08;;;;;;;16.27;4.70;;;5.70;95.30;;;;;;5115217;28;20059;-53
2022/01/10 10:19:35;;;;;;;17.73;4.82;;;5.80;95.30;;;;;;5115229;28;20417;-48
2022/01/10 10:22:01;;;;;;;15.90;4.32;;;5.80;95.50;;;;;;5115130;28;20051;-53
2022/01/10 10:24:28;;;;;;;14.18;4.22;;;5.90;95.10;;;;;;5113800;28;20039;-50
2022/01/10 10:26:55;;;;;;;20.40;4.72;;;5.90;95.10;;;;;;5114551;28;20042;-48
2022/01/10 10:29:26;;;;;;;19.33;5.93;;;6.00;95.40;;;;;;5109975;28;20431;-53
2022/01/10 10:31:53;;;;;;;16.23;5.00;;;6.10;95.00;;;;;;5115125;28;20040;-50
2022/01/10 10:34:20;;;;;;;19.80;5.88;;;6.10;95.00;;;;;;5114790;28;20457;-49
2022/01/10 10:36:47;;;;;;;19.90;5.10;;;6.20;95.00;;;;;;5114916;28;20114;-49
2022/01/10 10:39:14;;;;;;;21.60;6.35;;;6.20;95.00;;;;;;5114765;28;20134;-49
2022/01/10 10:41:42;;;;;;;18.95;5.05;;;6.30;95.00;;;;;;5114789;28;20039;-47
2022/01/10 10:44:09;;;;;;;19.83;5.05;;;6.30;94.90;;;;;;5114951;28;20063;-48
2022/01/10 10:46:36;;;;;;;22.88;5.28;;;6.30;95.30;;;;;;5114782;28;20136;-51
2022/01/10 10:49:04;;;;;;;18.00;4.60;;;6.40;95.20;;;;;;5114870;28;20119;-49
2022/01/10 10:51:31;;;;;;;21.40;5.07;;;6.40;95.20;;;;;;5114962;28;20041;-47
2022/01/10 10:53:58;;;;;;;17.73;5.10;;;6.40;95.00;;;;;;5113480;28;20479;-51
2022/01/10 10:56:25;;;;;;;19.00;4.95;;;6.40;95.00;;;;;;5113251;28;20055;-48
2022/01/10 10:58:52;;;;;;;13.10;4.38;;;6.50;95.00;;;;;;5114590;28;20110;-50
2022/01/10 11:01:18;;;;;;;18.17;4.90;;;6.50;95.10;;;;;;5113651;28;20044;-50
2022/01/10 11:03:45;;;;;;;16.55;4.93;;;6.60;95.00;;;;;;5113652;28;20040;-50
2022/01/10 11:06:12;;;;;;;16.55;4.47;;;6.60;94.90;;;;;;5114215;28;20036;-49
2022/01/10 11:08:41;;;;;;;20.00;4.90;;;6.70;94.90;;;;;;5113572;28;20036;-52
2022/01/10 11:11:07;;;;;;;14.23;4.40;;;6.80;94.80;;;;;;5114193;28;20039;-55
2022/01/10 11:13:34;;;;;;;17.20;4.40;;;6.80;94.80;;;;;;5114205;28;20048;-53
2022/01/10 11:16:01;;;;;;;19.48;4.88;;;6.90;94.80;;;;;;5114177;28;20050;-50
2022/01/10 11:18:28;;;;;;;15.98;4.50;;;6.90;94.90;;;;;;5114130;28;20461;-51
2022/01/10 11:20:58;;;;;;;22.35;5.30;;;6.90;94.60;;;;;;5112594;28;20463;-51
2022/01/10 11:23:33;;;;;;;17.38;5.07;;;7.00;94.60;;;;;;5114641;28;20042;-50
2022/01/10 11:26:00;;;;;;;18.67;4.55;;;7.00;94.60;;;;;;5114073;28;20035;-51
2022/01/10 11:28:26;;;;;;;18.30;5.53;;;7.00;94.60;;;;;;5113747;28;20433;-49
2022/01/10 11:30:53;;;;;;;19.77;5.03;;;7.00;94.70;;;;;;5113768;28;20423;-52
2022/01/10 11:33:21;;;;;;;17.92;5.22;;;7.10;94.60;;;;;;5114023;28;20067;-50
2022/01/10 11:35:50;;;;;;;14.73;4.38;;;7.10;94.60;;;;;;5113751;28;20067;-51
2022/01/10 11:38:17;;;;;;;19.98;4.60;;;7.20;94.70;;;;;;5113659;28;20055;-51
2022/01/10 11:40:44;;;;;;;16.85;4.82;;;7.20;94.50;;;;;;5113874;28;20478;-54
2022/01/10 11:43:11;;;;;;;19.00;6.35;;;7.20;94.30;;;;;;5113732;28;20036;-49
2022/01/10 11:45:38;;;;;;;21.20;5.60;;;7.30;94.20;;;;;;5113520;28;20035;-47
2022/01/10 11:48:06;;;;;;;18.50;4.82;;;7.30;94.30;;;;;;5113513;28;20039;-50
2022/01/10 11:50:42;;;;;;;19.20;5.22;;;7.30;94.00;;;;;;5113663;28;20394;-51
2022/01/10 11:53:09;;;;;;;22.77;7.32;;;7.40;94.00;;;;;;5113614;28;20432;-47
2022/01/10 11:55:35;;;;;;;22.73;5.45;;;7.40;93.90;;;;;;5113727;28;20130;-55
2022/01/10 11:58:02;;;;;;;20.77;5.32;;;7.50;93.70;;;;;;5113860;28;20509;-51
2022/01/10 12:00:29;;;;;;;15.38;5.00;;;7.50;93.70;;;;;;5113531;28;20042;-52
2022/01/10 12:02:56;;;;;;;18.30;5.03;;;7.60;93.60;;;;;;5113090;28;20036;-53
2022/01/10 12:05:23;;;;;;;19.98;5.85;;;7.60;93.70;;;;;;5112891;28;20042;-51
2022/01/10 12:07:51;;;;;;;15.30;4.75;;;7.60;93.50;;;;;;5094798;28;20039;-51
2022/01/10 12:10:25;;;;;;;17.60;4.88;;;7.60;93.30;;;;;;5113367;28;20440;-48
2022/01/10 12:12:54;;;;;;;19.98;5.18;;;7.60;93.30;;;;;;5113445;28;20043;-52
2022/01/10 12:15:21;;;;;;;21.90;6.00;;;7.70;93.40;;;;;;5113252;28;20044;-50
2022/01/10 12:17:48;;;;;;;15.95;4.88;;;7.60;93.30;;;;;;5111768;28;20043;-47
2022/01/10 12:20:15;;;;;;;19.35;4.85;;;7.70;93.20;;;;;;5113178;28;20041;-55
2022/01/10 12:22:41;;;;;;;19.20;4.35;;;7.70;93.30;;;;;;5113087;28;20042;-50
2022/01/10 12:25:08;;;;;;;19.33;5.18;;;7.70;93.20;;;;;;5112966;28;20046;-51
2022/01/10 12:27:35;;;;;;;15.38;4.38;;;7.70;93.00;;;;;;5112748;28;20032;-53
2022/01/10 12:30:02;;;;;;;19.42;5.68;;;7.70;93.10;;;;;;5112694;28;20044;-51
2022/01/10 12:32:29;;;;;;;18.73;5.30;;;7.70;93.10;;;;;;5112970;28;20376;-47
2022/01/10 12:34:56;;;;;;;17.23;4.90;;;7.80;93.20;;;;;;5112817;28;20039;-49
2022/01/10 12:37:22;;;;;;;17.77;4.90;;;7.80;93.20;;;;;;5112195;28;20040;-53
2022/01/10 12:39:49;;;;;;;15.73;4.70;;;7.80;93.30;;;;;;5113025;28;20050;-52
2022/01/10 12:42:17;;;;;;;19.08;5.15;;;7.80;93.20;;;;;;5112661;28;20046;-49
2022/01/10 12:44:44;;;;;;;13.38;4.82;;;7.80;93.40;;;;;;5112732;28;20044;-49
2022/01/10 12:47:11;;;;;;;20.10;5.10;;;7.80;93.30;;;;;;5112633;28;20081;-54
2022/01/10 12:49:39;;;;;;;16.92;4.82;;;7.80;93.30;;;;;;5112850;28;20035;-54
2022/01/10 12:52:06;;;;;;;23.45;5.50;;;7.80;93.30;;;;;;5113084;28;20040;-50
2022/01/10 12:54:33;;;;;;;17.75;4.80;;;7.80;93.40;;;;;;5113115;28;20460;-48
2022/01/10 12:57:00;;;;;;;16.77;4.88;;;7.80;93.30;;;;;;5112872;28;20513;-48
2022/01/10 12:59:27;;;;;;;19.55;5.05;;;7.80;93.40;;;;;;5112920;28;20063;-48
2022/01/10 13:01:55;;;;;;;17.00;4.97;;;7.90;93.50;;;;;;5112064;28;20040;-52
2022/01/10 13:04:23;;;;;;;18.88;4.72;;;7.90;93.50;;;;;;5112703;28;20096;-49
2022/01/10 13:06:49;;;;;;;17.67;5.18;;;7.90;93.60;;;;;;5112622;28;20036;-53
2022/01/10 13:09:16;;;;;;;19.63;5.03;;;7.90;93.50;;;;;;5112678;28;20047;-51
2022/01/10 13:11:49;;;;;;;20.67;5.35;;;7.90;93.50;;;;;;5112818;28;20040;-52
2022/01/10 13:14:15;;;;;;;16.02;4.82;;;7.90;93.50;;;;;;5112806;28;20043;-50
2022/01/10 13:16:42;;;;;;;21.48;6.13;;;7.90;93.50;;;;;;5113865;28;20428;-50
2022/01/10 13:19:09;;;;;;;23.08;6.28;;;8.00;93.60;;;;;;5116448;28;20048;-46
2022/01/10 13:21:39;;;;;;;20.42;8.10;;;8.00;93.50;;;;;;5116097;28;20036;-50
2022/01/10 13:24:06;;;;;;;40.20;21.73;;;8.00;93.50;;;;;;5113562;28;20067;-52
2022/01/10 13:26:32;;;;;;;53.97;31.95;;;8.00;93.50;;;;;;5116557;28;20391;-47
2022/01/10 13:29:04;;;;;;;65.22;38.10;;;8.00;93.60;;;;;;5116582;28;20114;-50
2022/01/10 13:31:30;;;;;;;55.90;35.40;;;8.00;93.60;;;;;;5114380;28;20138;-51
2022/01/10 13:33:57;;;;;;;43.10;23.90;;;8.10;93.60;;;;;;5116518;28;20253;-54
2022/01/10 13:36:24;;;;;;;42.20;22.05;;;8.10;93.60;;;;;;5116285;28;20115;-53
2022/01/10 13:38:51;;;;;;;29.33;15.70;;;8.10;93.70;;;;;;5115687;28;20044;-50
2022/01/10 13:41:18;;;;;;;26.88;13.40;;;8.10;93.50;;;;;;5116276;28;20043;-50
2022/01/10 13:43:44;;;;;;;29.85;11.57;;;8.20;93.60;;;;;;5116133;28;20035;-51
2022/01/10 13:46:11;;;;;;;27.92;13.57;;;8.20;93.50;;;;;;5114822;28;20552;-46
2022/01/10 13:48:38;;;;;;;31.00;15.43;;;8.20;93.40;;;;;;5116125;28;20130;-52
2022/01/10 13:51:06;;;;;;;42.65;20.77;;;8.20;93.20;;;;;;5116042;28;20414;-53
2022/01/10 13:53:33;;;;;;;37.90;22.15;;;8.30;93.30;;;;;;5116097;28;20043;-50
2022/01/10 13:56:00;;;;;;;36.03;18.08;;;8.30;93.20;;;;;;5115900;28;20059;-52
2022/01/10 13:58:27;;;;;;;29.85;13.55;;;8.30;93.10;;;;;;5115167;28;20047;-48
2022/01/10 14:00:54;;;;;;;28.08;10.23;;;8.40;93.20;;;;;;5115832;28;20079;-49
2022/01/10 14:03:21;;;;;;;25.55;9.48;;;8.40;93.10;;;;;;5115968;28;20450;-52
2022/01/10 14:05:48;;;;;;;23.13;9.38;;;8.40;93.10;;;;;;5115806;28;20438;-49
2022/01/10 14:08:14;;;;;;;20.08;8.57;;;8.40;93.00;;;;;;5115696;28;20379;-49
2022/01/10 14:10:41;;;;;;;23.42;8.77;;;8.40;92.90;;;;;;5116315;28;20066;-50
2022/01/10 14:13:08;;;;;;;22.10;10.07;;;8.40;93.00;;;;;;5115567;28;20040;-51
2022/01/10 14:15:35;;;;;;;27.00;11.68;;;8.40;92.80;;;;;;5115490;28;20042;-48
2022/01/10 14:18:02;;;;;;;32.05;14.18;;;8.40;92.80;;;;;;5114978;28;20127;-49
2022/01/10 14:20:29;;;;;;;40.85;21.90;;;8.50;92.90;;;;;;5115384;28;20040;-49
2022/01/10 14:22:55;;;;;;;56.15;28.95;;;8.50;92.60;;;;;;5115618;28;20040;-46
2022/01/10 14:25:22;;;;;;;57.28;31.17;;;8.50;92.60;;;;;;5114913;28;20073;-48
2022/01/10 14:27:49;;;;;;;56.60;33.00;;;8.50;92.70;;;;;;5115364;28;20043;-49
2022/01/10 14:30:17;;;;;;;67.78;37.50;;;8.50;92.70;;;;;;5115454;28;20469;-49
2022/01/10 14:32:44;;;;;;;60.95;32.60;;;8.50;92.60;;;;;;5114755;28;20062;-50
2022/01/10 14:35:11;;;;;;;49.35;21.30;;;8.50;92.80;;;;;;5115330;28;20471;-53
2022/01/10 14:37:37;;;;;;;32.45;13.77;;;8.50;92.70;;;;;;5114450;28;20047;-54
2022/01/10 14:40:05;;;;;;;23.23;9.63;;;8.50;92.70;;;;;;5115159;28;20043;-51
2022/01/10 14:42:32;;;;;;;26.30;10.60;;;8.50;92.80;;;;;;5115206;28;20043;-49
2022/01/10 14:44:59;;;;;;;25.77;10.73;;;8.50;92.90;;;;;;5109142;28;20093;-50
2022/01/10 14:47:26;;;;;;;23.63;8.90;;;8.50;92.90;;;;;;5108329;28;20536;-51
2022/01/10 14:49:53;;;;;;;24.70;8.90;;;8.50;92.90;;;;;;5107644;28;20096;-58
2022/01/10 14:52:20;;;;;;;25.67;8.52;;;8.50;93.10;;;;;;5114815;28;20046;-48
2022/01/10 14:54:47;;;;;;;22.27;8.18;;;8.50;93.20;;;;;;5114930;28;20100;-53
2022/01/10 14:57:13;;;;;;;28.20;8.75;;;8.50;93.20;;;;;;5114077;28;20136;-52
2022/01/10 14:59:41;;;;;;;25.27;8.18;;;8.50;93.30;;;;;;5114801;28;20062;-49
2022/01/10 15:02:07;;;;;;;23.33;7.15;;;8.50;93.30;;;;;;5114172;28;20039;-52
2022/01/10 15:04:34;;;;;;;20.90;7.13;;;8.50;93.30;;;;;;5112938;28;20039;-51
2022/01/10 15:07:01;;;;;;;23.35;7.80;;;8.50;93.40;;;;;;5113989;28;20062;-48
2022/01/10 15:09:28;;;;;;;18.73;6.18;;;8.40;93.50;;;;;;5127504;27;20036;-52
2022/01/10 15:11:55;;;;;;;25.05;7.35;;;8.40;93.70;;;;;;5112122;27;20038;-47
2022/01/10 15:14:21;;;;;;;23.48;8.75;;;8.40;93.80;;;;;;5108130;28;20049;-50
2022/01/10 15:16:48;;;;;;;28.00;10.48;;;8.40;93.90;;;;;;5112575;28;20437;-51
2022/01/10 15:19:16;;;;;;;34.13;12.02;;;8.40;93.90;;;;;;5114629;28;20374;-51
2022/01/10 15:21:44;;;;;;;27.33;11.48;;;8.40;94.00;;;;;;5114426;28;20039;-53
2022/01/10 15:24:11;;;;;;;31.77;10.32;;;8.40;94.10;;;;;;5113209;28;20555;-50
2022/01/10 15:26:38;;;;;;;21.52;8.27;;;8.50;94.20;;;;;;5112687;28;20508;-50
2022/01/10 15:29:06;;;;;;;22.30;8.88;;;8.40;94.50;;;;;;5114290;28;20042;-50
2022/01/10 15:31:33;;;;;;;20.35;8.57;;;8.40;94.60;;;;;;5113334;28;20056;-48
2022/01/10 15:34:00;;;;;;;19.95;7.38;;;8.40;94.80;;;;;;5114167;28;20060;-50
2022/01/10 15:36:27;;;;;;;30.38;8.90;;;8.40;94.80;;;;;;5114051;28;20043;-47
2022/01/10 15:38:57;;;;;;;24.67;7.88;;;8.40;94.80;;;;;;5113505;28;20036;-52
2022/01/10 15:41:23;;;;;;;25.52;8.05;;;8.30;94.90;;;;;;5113899;28;20576;-51
2022/01/10 15:43:50;;;;;;;25.35;9.82;;;8.30;94.90;;;;;;5113982;28;20122;-52
2022/01/10 15:46:17;;;;;;;25.50;9.18;;;8.30;95.00;;;;;;5112438;28;20036;-50
2022/01/10 15:48:44;;;;;;;25.92;7.43;;;8.30;95.00;;;;;;5113198;28;20050;-47
2022/01/10 15:51:11;;;;;;;26.60;8.77;;;8.30;95.00;;;;;;5114026;28;20487;-52
2022/01/10 15:53:38;;;;;;;26.83;8.43;;;8.30;95.10;;;;;;5112472;28;20138;-49
2022/01/10 15:56:05;;;;;;;25.20;7.32;;;8.30;95.10;;;;;;5113950;28;20118;-48
2022/01/10 15:58:33;;;;;;;22.95;8.02;;;8.30;95.10;;;;;;5113872;28;20123;-46
2022/01/10 16:01:00;;;;;;;28.80;7.88;;;8.30;95.10;;;;;;5113702;28;20043;-49
2022/01/10 16:03:27;;;;;;;24.65;7.40;;;8.20;95.10;;;;;;5113548;28;20040;-49
2022/01/10 16:05:56;;;;;;;21.05;6.53;;;8.20;95.10;;;;;;5113875;28;20134;-48
2022/01/10 16:08:23;;;;;;;28.50;7.55;;;8.30;95.20;;;;;;5113587;28;20115;-49
2022/01/10 16:10:50;;;;;;;19.65;7.30;;;8.20;95.10;;;;;;5113747;28;20047;-50
2022/01/10 16:13:17;;;;;;;18.27;7.22;;;8.20;95.10;;;;;;5113533;28;20050;-46
2022/01/10 16:15:44;;;;;;;25.40;7.63;;;8.20;95.10;;;;;;5113427;28;20039;-51
2022/01/10 16:18:11;;;;;;;24.08;7.47;;;8.20;95.20;;;;;;5113445;28;20046;-50
2022/01/10 16:20:38;;;;;;;23.17;8.98;;;8.20;95.20;;;;;;5113514;28;20036;-48
2022/01/10 16:23:05;;;;;;;30.58;11.05;;;8.20;95.20;;;;;;5128702;27;20032;-47
2022/01/10 16:25:32;;;;;;;28.70;10.25;;;8.20;95.20;;;;;;5113231;28;20038;-51
2022/01/10 16:27:58;;;;;;;25.42;10.93;;;8.20;95.20;;;;;;5113393;28;20501;-46
2022/01/10 16:30:27;;;;;;;28.20;9.13;;;8.20;95.20;;;;;;5113121;28;20050;-53
2022/01/10 16:32:54;;;;;;;24.08;8.95;;;8.20;95.20;;;;;;5113926;28;20383;-46
2022/01/10 16:35:21;;;;;;;20.90;8.05;;;8.20;95.20;;;;;;5128364;28;20057;-47
2022/01/10 16:37:48;;;;;;;27.63;8.70;;;8.20;95.10;;;;;;5112703;28;20039;-52
2022/01/10 16:40:15;;;;;;;19.60;7.60;;;8.20;95.10;;;;;;5113211;28;20055;-52
2022/01/10 16:42:42;;;;;;;24.45;7.72;;;8.20;95.10;;;;;;5128315;28;20040;-52
2022/01/10 16:45:09;;;;;;;24.45;7.97;;;8.20;95.10;;;;;;5112407;28;20040;-52
2022/01/10 16:47:36;;;;;;;28.77;8.93;;;8.20;95.10;;;;;;5112694;28;20479;-53
2022/01/10 16:50:03;;;;;;;29.88;9.55;;;8.20;95.00;;;;;;5112935;28;20043;-51
2022/01/10 16:52:30;;;;;;;32.25;10.88;;;8.20;95.00;;;;;;5115453;28;20130;-49
2022/01/10 16:54:57;;;;;;;31.27;10.80;;;8.20;95.00;;;;;;5117025;28;20051;-55
2022/01/10 16:57:26;;;;;;;29.15;10.73;;;8.20;95.10;;;;;;5116982;28;20055;-52
2022/01/10 16:59:54;;;;;;;21.77;10.05;;;8.20;95.10;;;;;;5116911;27;20482;-53
2022/01/10 17:02:21;;;;;;;27.75;10.13;;;8.20;95.10;;;;;;5116830;28;20463;-54
2022/01/10 17:04:48;;;;;;;29.33;9.88;;;8.20;95.00;;;;;;5115675;28;20127;-49
2022/01/10 17:07:15;;;;;;;27.38;10.65;;;8.30;95.00;;;;;;5116026;28;20122;-47
2022/01/10 17:09:48;;;;;;;25.83;9.57;;;8.20;95.10;;;;;;5116168;27;20054;-46
2022/01/10 17:12:35;;;;;;;29.48;9.63;;;8.30;95.10;;;;;;5110922;28;20486;-54
2022/01/10 17:15:01;;;;;;;25.15;10.50;;;8.20;95.10;;;;;;5116969;28;20070;-54
2022/01/10 17:17:28;;;;;;;25.92;9.10;;;8.30;95.10;;;;;;5110045;28;20043;-52
2022/01/10 17:19:55;;;;;;;25.63;9.02;;;8.30;95.10;;;;;;5109997;28;20054;-54
2022/01/10 17:22:22;;;;;;;26.05;10.02;;;8.30;95.20;;;;;;5116120;28;20035;-56
2022/01/10 17:24:50;;;;;;;26.63;9.52;;;8.30;95.10;;;;;;5116365;28;20403;-55
2022/01/10 17:27:17;;;;;;;31.00;11.90;;;8.30;95.10;;;;;;5109618;28;20085;-55
2022/01/10 17:29:44;;;;;;;28.95;11.55;;;8.30;95.20;;;;;;5109655;28;20043;-52
2022/01/10 17:32:11;;;;;;;28.83;10.23;;;8.30;95.20;;;;;;5115798;28;20036;-51
2022/01/10 17:34:38;;;;;;;36.08;12.68;;;8.30;95.20;;;;;;5114852;28;20058;-50
2022/01/10 17:37:04;;;;;;;28.65;11.13;;;8.30;95.40;;;;;;5116453;28;20445;-48
2022/01/10 17:39:31;;;;;;;24.92;10.65;;;8.30;95.20;;;;;;5115766;28;20048;-49
2022/01/10 17:41:58;;;;;;;29.75;12.77;;;8.30;95.20;;;;;;5116216;28;20119;-52
2022/01/10 17:44:25;;;;;;;54.53;24.50;;;8.30;95.20;;;;;;5116129;28;20038;-49
2022/01/10 17:46:51;;;;;;;69.72;35.85;;;8.30;95.30;;;;;;5115333;28;20028;-56
2022/01/10 17:49:26;;;;;;;62.30;29.20;;;8.30;95.30;;;;;;5115882;28;20035;-51
2022/01/10 17:51:59;;;;;;;52.63;26.08;;;8.40;95.30;;;;;;5115481;28;20031;-51
2022/01/10 17:54:26;;;;;;;50.35;24.52;;;8.40;95.30;;;;;;5115903;28;20569;-53
2022/01/10 17:56:53;;;;;;;58.28;26.52;;;8.40;95.30;;;;;;5115244;28;20380;-52
2022/01/10 17:59:20;;;;;;;60.38;26.17;;;8.40;95.40;;;;;;5115641;28;20046;-48
2022/01/10 18:01:47;;;;;;;45.28;24.02;;;8.40;95.40;;;;;;5106903;28;20044;-48
2022/01/10 18:04:14;;;;;;;52.45;22.13;;;8.40;95.40;;;;;;5108659;28;20116;-49
2022/01/10 18:06:41;;;;;;;47.72;21.38;;;8.40;95.40;;;;;;5115347;28;20035;-53
2022/01/10 18:09:07;;;;;;;51.35;18.80;;;8.50;95.40;;;;;;5115325;28;20031;-51
2022/01/10 18:11:34;;;;;;;43.88;16.83;;;8.50;95.40;;;;;;5115582;27;20101;-47
2022/01/10 18:14:01;;;;;;;43.20;20.13;;;8.50;95.40;;;;;;5115402;28;20110;-51
2022/01/10 18:16:28;;;;;;;54.75;24.48;;;8.50;95.40;;;;;;5115366;28;20040;-50
2022/01/10 18:18:55;;;;;;;52.97;25.40;;;8.50;95.40;;;;;;5115427;28;20039;-49
2022/01/10 18:21:21;;;;;;;65.18;32.42;;;8.50;95.40;;;;;;5115260;28;20044;-48
2022/01/10 18:23:49;;;;;;;72.75;33.70;;;8.60;95.40;;;;;;5113847;28;20621;-47
2022/01/10 18:26:16;;;;;;;69.97;32.95;;;8.60;95.40;;;;;;5115033;28;20081;-51
2022/01/10 18:28:43;;;;;;;67.70;32.13;;;8.60;95.50;;;;;;5114872;28;20048;-50
2022/01/10 18:31:09;;;;;;;63.20;28.05;;;8.60;95.50;;;;;;5114505;28;20047;-48
2022/01/10 18:33:37;;;;;;;54.65;26.33;;;8.60;95.40;;;;;;5115368;28;20369;-52
2022/01/10 18:36:05;;;;;;;68.22;32.83;;;8.60;95.50;;;;;;5115394;28;20044;-48
2022/01/10 18:38:32;;;;;;;65.72;33.05;;;8.70;95.40;;;;;;5115012;28;20482;-52
2022/01/10 18:40:59;;;;;;;72.50;35.67;;;8.70;95.40;;;;;;5114643;28;20036;-50
2022/01/10 18:43:26;;;;;;;59.70;30.55;;;8.70;95.40;;;;;;5113883;28;20063;-49
2022/01/10 18:45:54;;;;;;;57.67;28.55;;;8.70;95.40;;;;;;5114527;28;20039;-48
2022/01/10 18:48:21;;;;;;;52.75;24.80;;;8.70;95.40;;;;;;5115757;28;20040;-53
2022/01/10 18:50:48;;;;;;;50.78;24.30;;;8.80;95.40;;;;;;5115184;28;20044;-49
2022/01/10 18:53:15;;;;;;;45.60;21.55;;;8.80;95.30;;;;;;5114937;28;20122;-47
2022/01/10 18:55:44;;;;;;;39.35;20.42;;;8.80;95.30;;;;;;5114781;28;20047;-50
2022/01/10 18:58:11;;;;;;;46.08;21.73;;;8.80;95.40;;;;;;5114334;28;20134;-51
2022/01/10 19:00:38;;;;;;;49.83;23.92;;;8.80;95.40;;;;;;5113605;28;20116;-49
2022/01/10 19:03:05;;;;;;;40.55;19.67;;;8.80;95.50;;;;;;5114278;28;20433;-53
2022/01/10 19:05:32;;;;;;;41.08;17.65;;;8.80;95.40;;;;;;5114647;28;20058;-50
2022/01/10 19:07:58;;;;;;;44.47;16.50;;;8.80;95.50;;;;;;5113857;28;20495;-50
2022/01/10 19:10:26;;;;;;;41.70;18.30;;;8.80;95.40;;;;;;5114808;28;20402;-50
2022/01/10 19:12:52;;;;;;;41.60;17.48;;;8.80;95.50;;;;;;5113863;28;20039;-53
2022/01/10 19:15:19;;;;;;;40.88;16.25;;;8.80;95.50;;;;;;5113687;28;20047;-49
2022/01/10 19:17:46;;;;;;;42.58;17.60;;;8.90;95.50;;;;;;5113861;27;20051;-49
2022/01/10 19:20:13;;;;;;;43.42;19.10;;;8.90;95.50;;;;;;5114416;28;20039;-51
2022/01/10 19:22:40;;;;;;;49.90;21.17;;;8.90;95.60;;;;;;5113509;28;20047;-47
2022/01/10 19:25:07;;;;;;;48.92;22.02;;;8.90;95.50;;;;;;5114517;28;20379;-51
2022/01/10 19:27:34;;;;;;;47.05;22.15;;;8.90;95.50;;;;;;5113635;28;20535;-55
2022/01/10 19:30:01;;;;;;;63.40;25.83;;;8.90;95.60;;;;;;5114251;28;20116;-56
2022/01/10 19:32:28;;;;;;;57.10;26.13;;;8.90;95.50;;;;;;5113559;28;20039;-52
2022/01/10 19:34:55;;;;;;;59.67;28.73;;;8.90;95.50;;;;;;5114660;28;20398;-52
2022/01/10 19:37:22;;;;;;;58.05;28.05;;;8.90;95.50;;;;;;5113527;28;20043;-47
2022/01/10 19:39:48;;;;;;;57.33;29.63;;;8.90;95.60;;;;;;5114473;28;20035;-52
2022/01/10 19:42:15;;;;;;;64.03;29.70;;;8.90;95.50;;;;;;5114106;28;20420;-49
2022/01/10 19:44:43;;;;;;;68.10;32.70;;;8.90;95.50;;;;;;5113775;28;20379;-51
2022/01/10 19:47:09;;;;;;;76.72;33.13;;;9.00;95.50;;;;;;5114207;28;20043;-51
2022/01/10 19:49:36;;;;;;;63.63;31.67;;;8.90;95.60;;;;;;5113138;28;20562;-50
2022/01/10 19:52:03;;;;;;;68.22;31.95;;;9.00;95.70;;;;;;5113909;28;20118;-51
2022/01/10 19:54:30;;;;;;;61.33;28.52;;;9.00;95.70;;;;;;5113280;28;20046;-50
2022/01/10 19:56:57;;;;;;;60.67;28.58;;;9.00;95.80;;;;;;5112589;28;20040;-52
2022/01/10 19:59:23;;;;;;;68.43;32.83;;;9.00;95.80;;;;;;5113215;28;20044;-49
2022/01/10 20:01:50;;;;;;;74.70;33.72;;;9.00;95.80;;;;;;5113685;28;20127;-50
2022/01/10 20:04:17;;;;;;;75.25;33.55;;;9.00;95.70;;;;;;5113128;28;20115;-51
2022/01/10 20:06:44;;;;;;;70.30;33.10;;;9.00;95.80;;;;;;5113711;28;20434;-47
2022/01/10 20:09:11;;;;;;;60.50;28.58;;;8.90;95.80;;;;;;5113657;28;20390;-52
2022/01/10 20:11:39;;;;;;;56.22;28.75;;;9.00;95.90;;;;;;5111813;28;20482;-51
2022/01/10 20:14:08;;;;;;;64.93;28.42;;;9.00;95.90;;;;;;5113590;28;20040;-53
2022/01/10 20:16:35;;;;;;;57.38;27.45;;;9.00;95.90;;;;;;5113363;28;20440;-53
2022/01/10 20:19:02;;;;;;;58.67;29.60;;;9.00;95.90;;;;;;5112932;28;20130;-50
2022/01/10 20:21:29;;;;;;;62.35;30.95;;;9.00;95.80;;;;;;5113244;28;20051;-55
2022/01/10 20:23:56;;;;;;;75.97;38.60;;;9.00;95.80;;;;;;5113655;28;20044;-54
2022/01/10 20:26:22;;;;;;;73.40;36.17;;;9.00;95.70;;;;;;5113605;28;20070;-49
2022/01/10 20:28:49;;;;;;;61.75;31.05;;;9.00;95.60;;;;;;5113240;28;20391;-49
2022/01/10 20:31:23;;;;;;;59.92;26.25;;;9.00;95.50;;;;;;5112830;28;20055;-50
2022/01/10 20:33:50;;;;;;;44.75;24.40;;;9.10;95.50;;;;;;5112477;28;20051;-48
2022/01/10 20:36:17;;;;;;;45.53;22.88;;;9.10;95.40;;;;;;5112895;28;20047;-53
2022/01/10 20:38:43;;;;;;;45.45;23.30;;;9.00;95.40;;;;;;5112126;28;20047;-48
2022/01/10 20:41:10;;;;;;;44.08;22.42;;;9.00;95.30;;;;;;5112529;28;20410;-47
2022/01/10 20:43:37;;;;;;;46.55;22.00;;;9.10;95.30;;;;;;5111767;28;20032;-47
2022/01/10 20:46:04;;;;;;;44.83;20.65;;;9.10;95.20;;;;;;5112724;28;20064;-47
2022/01/10 20:48:31;;;;;;;40.42;18.63;;;9.10;95.10;;;;;;5112755;28;20475;-50
2022/01/10 20:50:59;;;;;;;35.50;17.67;;;9.10;94.90;;;;;;5112121;28;20043;-49
2022/01/10 20:53:27;;;;;;;41.97;19.20;;;9.10;95.00;;;;;;5110698;28;20050;-49
2022/01/10 20:55:54;;;;;;;43.42;19.02;;;9.10;94.90;;;;;;5112165;28;20444;-51
2022/01/10 20:58:21;;;;;;;42.85;21.10;;;9.10;95.00;;;;;;5112200;28;20040;-49
2022/01/10 21:00:48;;;;;;;46.17;21.48;;;9.00;95.10;;;;;;5112433;28;20044;-50
2022/01/10 21:03:19;;;;;;;36.83;19.73;;;9.10;94.90;;;;;;5102396;28;88990;-50
2022/01/10 21:05:47;;;;;;;38.15;21.00;;;9.10;94.80;;;;;;5071860;28;20583;-48
2022/01/10 21:08:15;;;;;;;39.90;19.98;;;9.10;94.80;;;;;;5071734;28;20079;-52
2022/01/10 21:10:42;;;;;;;36.53;19.77;;;9.10;94.70;;;;;;5071674;28;20037;-49
2022/01/10 21:13:08;;;;;;;39.65;21.35;;;9.00;94.80;;;;;;5071365;28;20045;-50